Time;durP1;ratioP1;P1;durP2;ratioP2;P2;SDS_P1;SDS_P2;PMS_P1;PMS_P2;Temp;Humidity;BMP_temperature;BMP_pressure;BME280_temperature;BME280_humidity;BME280_pressure;Samples;Min_cycle;Max_cycle;Signal;HPM_P1;HPM_P2
2021/12/16 00:03:36;;;;;;;16.20;8.07;;;;;;;;;;5064977;28;20146;-73
2021/12/16 00:06:47;;;;;;;31.13;10.70;;;;;;;;;;5064746;28;20021;-74
2021/12/16 00:09:00;;;;;;;21.02;7.47;;;;;;;;;;5065419;28;20078;-75
2021/12/16 00:30:41;;;;;;;8.98;5.13;;;;;;;;;;5065697;28;20028;-74
2021/12/16 00:33:33;;;;;;;9.15;5.35;;;;;;;;;;5064372;28;20698;-74
2021/12/16 00:35:49;;;;;;;10.27;5.35;;;;;;;;;;5064110;28;20031;-74
2021/12/16 00:38:16;;;;;;;8.98;5.63;;;;;;;;;;5064112;28;20502;-75
2021/12/16 00:40:43;;;;;;;16.20;7.93;;;;;;;;;;5102504;27;20103;-74
2021/12/16 00:43:57;;;;;;;12.60;7.10;;;;;;;;;;5128972;27;20102;-74
2021/12/16 00:49:16;;;;;;;9.48;4.80;;;;;;;;;;5129067;27;20033;-74
2021/12/16 00:54:11;;;;;;;9.35;5.25;;;;;;;;;;5131472;27;20397;-72
2021/12/16 00:56:56;;;;;;;9.68;5.35;;;;;;;;;;5129167;27;20027;-74
2021/12/16 00:59:25;;;;;;;10.18;5.32;;;;;;;;;;5129300;27;20029;-74
2021/12/16 01:02:22;;;;;;;9.40;5.80;;;;;;;;;;5129098;27;20722;-74
2021/12/16 01:35:22;;;;;;;8.82;5.10;;;;;;;;;;4990356;28;20489;-74
2021/12/16 01:38:37;;;;;;;10.75;5.38;;;;;;;;;;4990413;28;20042;-74
2021/12/16 01:46:56;;;;;;;8.63;4.43;;;;;;;;;;5030031;28;20047;-74
2021/12/16 01:51:59;;;;;;;6.30;4.22;;;;;;;;;;5030975;28;20447;-74
2021/12/16 01:54:41;;;;;;;8.32;4.38;;;;;;;;;;5129646;27;20039;-74
2021/12/16 01:57:20;;;;;;;6.93;4.20;;;;;;;;;;5129182;28;20035;-74
2021/12/16 01:59:50;;;;;;;9.05;4.90;;;;;;;;;;5129337;28;20530;-73
2021/12/16 02:03:00;;;;;;;6.63;3.72;;;;;;;;;;5128079;28;20023;-74
2021/12/16 02:05:31;;;;;;;7.25;3.75;;;;;;;;;;5125277;27;20478;-74
2021/12/16 02:10:35;;;;;;;6.13;4.03;;;;;;;;;;5128466;28;20019;-74
2021/12/16 02:35:14;;;;;;;8.20;4.28;;;;;;;;;;5063208;28;20055;-74
2021/12/16 02:37:47;;;;;;;9.63;5.47;;;;;;;;;;5062760;28;20025;-73
2021/12/16 02:40:14;;;;;;;12.90;5.88;;;;;;;;;;5066625;28;20320;-74
2021/12/16 02:42:54;;;;;;;11.45;6.15;;;;;;;;;;5064871;28;20130;-73
2021/12/16 02:50:52;;;;;;;9.52;4.65;;;;;;;;;;5063460;28;20027;-74
2021/12/16 02:53:18;;;;;;;7.38;4.47;;;;;;;;;;5062531;28;20036;-74
2021/12/16 02:55:46;;;;;;;10.50;4.28;;;;;;;;;;5063113;28;20037;-74
2021/12/16 02:58:13;;;;;;;9.10;4.10;;;;;;;;;;5066484;28;20059;-74
2021/12/16 03:00:43;;;;;;;6.13;3.90;;;;;;;;;;5064533;28;20020;-74
2021/12/16 03:03:09;;;;;;;7.45;3.78;;;;;;;;;;5062281;28;20043;-75
2021/12/16 03:05:36;;;;;;;7.40;4.28;;;;;;;;;;5063213;28;20037;-74
2021/12/16 03:08:04;;;;;;;6.50;3.88;;;;;;;;;;5062565;28;20406;-74
2021/12/16 03:13:25;;;;;;;6.28;4.10;;;;;;;;;;5116498;27;20447;-74
2021/12/16 03:16:15;;;;;;;6.00;4.28;;;;;;;;;;5132695;27;20018;-73
2021/12/16 03:21:40;;;;;;;8.57;4.38;;;;;;;;;;5125068;27;20035;-74
2021/12/16 03:37:15;;;;;;;6.53;4.53;;;;;;;;;;5045955;28;20048;-74
2021/12/16 03:39:43;;;;;;;8.75;4.90;;;;;;;;;;5033536;28;20052;-74
2021/12/16 03:42:11;;;;;;;7.70;4.82;;;;;;;;;;5034708;28;20048;-74
2021/12/16 03:44:52;;;;;;;6.90;4.53;;;;;;;;;;5019546;28;20394;-74
2021/12/16 03:47:20;;;;;;;8.30;4.60;;;;;;;;;;5015166;28;20365;-74
2021/12/16 03:49:47;;;;;;;9.93;5.40;;;;;;;;;;5014370;28;20079;-74
2021/12/16 03:52:13;;;;;;;8.20;4.43;;;;;;;;;;5011424;28;20030;-74
2021/12/16 03:54:42;;;;;;;9.93;5.13;;;;;;;;;;5013996;28;20029;-74
2021/12/16 03:57:10;;;;;;;8.77;5.18;;;;;;;;;;5014332;28;20076;-73
2021/12/16 03:59:37;;;;;;;5.97;4.65;;;;;;;;;;5014635;28;20121;-74
2021/12/16 04:02:06;;;;;;;7.55;4.72;;;;;;;;;;5014941;28;20040;-74
2021/12/16 04:04:32;;;;;;;7.47;5.28;;;;;;;;;;5013435;28;20037;-74
2021/12/16 04:06:59;;;;;;;6.35;4.50;;;;;;;;;;4994783;28;20034;-74
2021/12/16 04:09:25;;;;;;;9.07;5.57;;;;;;;;;;5014966;28;20033;-74
2021/12/16 04:12:07;;;;;;;8.68;5.55;;;;;;;;;;5014587;28;20599;-74
2021/12/16 04:14:34;;;;;;;9.05;4.75;;;;;;;;;;5062504;28;20043;-74
2021/12/16 04:17:03;;;;;;;9.38;4.50;;;;;;;;;;5089494;28;20085;-74
2021/12/16 04:19:31;;;;;;;10.07;4.75;;;;;;;;;;5088892;28;20462;-74
2021/12/16 04:22:00;;;;;;;7.72;4.53;;;;;;;;;;5088220;28;20048;-73
2021/12/16 04:24:27;;;;;;;5.95;4.20;;;;;;;;;;5090021;28;20020;-74
2021/12/16 04:26:54;;;;;;;7.80;4.70;;;;;;;;;;5089405;28;20028;-74
2021/12/16 04:29:23;;;;;;;6.93;4.38;;;;;;;;;;5089396;28;20042;-74
2021/12/16 04:31:50;;;;;;;11.13;4.53;;;;;;;;;;5089348;28;20017;-74
2021/12/16 04:34:16;;;;;;;9.48;5.40;;;;;;;;;;5090167;28;20022;-74
2021/12/16 04:36:43;;;;;;;6.63;4.03;;;;;;;;;;5091763;28;20408;-74
2021/12/16 04:39:12;;;;;;;7.18;4.57;;;;;;;;;;5091199;28;20032;-75
2021/12/16 04:41:39;;;;;;;7.95;4.70;;;;;;;;;;5088920;28;20032;-74
2021/12/16 04:44:08;;;;;;;10.07;4.38;;;;;;;;;;5110447;27;20054;-74
2021/12/16 04:46:35;;;;;;;6.68;4.25;;;;;;;;;;5130054;27;20099;-74
2021/12/16 04:49:02;;;;;;;12.23;6.05;;;;;;;;;;5130093;27;20035;-74
2021/12/16 04:51:31;;;;;;;8.45;5.30;;;;;;;;;;5132857;27;20027;-73
2021/12/16 04:53:58;;;;;;;6.78;4.22;;;;;;;;;;5129260;27;20045;-74
2021/12/16 04:56:24;;;;;;;8.90;4.57;;;;;;;;;;5129653;27;20035;-74
2021/12/16 04:58:52;;;;;;;9.18;5.88;;;;;;;;;;5129506;27;20027;-74
2021/12/16 05:01:19;;;;;;;9.60;5.57;;;;;;;;;;5129437;27;20024;-75
2021/12/16 05:03:45;;;;;;;11.70;7.38;;;;;;;;;;5130840;27;20496;-74
2021/12/16 05:06:12;;;;;;;12.20;7.05;;;;;;;;;;5130425;27;20023;-73
2021/12/16 05:08:39;;;;;;;12.55;6.40;;;;;;;;;;5129029;27;20363;-74
2021/12/16 05:11:06;;;;;;;10.18;6.22;;;;;;;;;;5129177;27;20426;-74
2021/12/16 05:13:34;;;;;;;8.43;5.90;;;;;;;;;;5131018;27;20023;-74
2021/12/16 05:16:03;;;;;;;8.05;6.00;;;;;;;;;;5130166;27;20019;-74
2021/12/16 05:18:32;;;;;;;8.10;5.55;;;;;;;;;;5131493;27;20032;-74
2021/12/16 05:21:01;;;;;;;12.70;6.05;;;;;;;;;;5128986;27;20067;-74
2021/12/16 05:28:39;;;;;;;6.65;3.58;;;;;;;;;;5129012;27;20011;-74
2021/12/16 05:31:06;;;;;;;6.88;3.70;;;;;;;;;;5112514;27;20023;-74
2021/12/16 05:33:32;;;;;;;7.35;3.95;;;;;;;;;;5127291;27;20031;-74
2021/12/16 05:35:59;;;;;;;5.40;3.47;;;;;;;;;;5128684;27;20037;-74
2021/12/16 05:38:26;;;;;;;5.72;3.33;;;;;;;;;;5128627;27;20031;-74
2021/12/16 05:40:53;;;;;;;7.55;3.63;;;;;;;;;;5128548;27;20027;-74
2021/12/16 05:43:24;;;;;;;6.30;4.03;;;;;;;;;;5128366;27;20043;-74
2021/12/16 05:45:52;;;;;;;6.38;3.80;;;;;;;;;;5130360;27;20031;-74
2021/12/16 05:48:20;;;;;;;4.15;3.15;;;;;;;;;;5129837;27;20019;-73
2021/12/16 05:50:48;;;;;;;5.65;3.47;;;;;;;;;;5128562;27;20023;-74
2021/12/16 05:53:15;;;;;;;9.20;5.60;;;;;;;;;;5130015;27;20053;-74
2021/12/16 05:55:41;;;;;;;8.95;5.97;;;;;;;;;;5128328;28;20023;-74
2021/12/16 05:58:09;;;;;;;11.15;6.18;;;;;;;;;;5128850;27;20045;-73
2021/12/16 06:00:42;;;;;;;10.48;5.60;;;;;;;;;;5112956;28;20027;-74
2021/12/16 06:03:09;;;;;;;25.45;15.07;;;;;;;;;;5129019;28;20027;-74
2021/12/16 06:05:36;;;;;;;14.93;8.38;;;;;;;;;;5128565;28;20020;-74
2021/12/16 06:08:03;;;;;;;15.60;9.73;;;;;;;;;;5128349;28;20493;-73
2021/12/16 06:11:04;;;;;;;21.75;10.35;;;;;;;;;;5128581;28;20023;-75
2021/12/16 06:13:15;;;;;;;14.90;9.43;;;;;;;;;;5113188;28;20438;-74
2021/12/16 06:29:20;;;;;;;10.25;5.65;;;;;;;;;;5062647;28;20043;-74
2021/12/16 06:31:47;;;;;;;8.05;4.72;;;;;;;;;;5063216;28;20375;-74
2021/12/16 06:34:13;;;;;;;7.70;4.10;;;;;;;;;;5067256;28;20042;-74
2021/12/16 06:36:39;;;;;;;10.10;5.00;;;;;;;;;;5064513;28;20025;-74
2021/12/16 06:39:06;;;;;;;9.55;4.97;;;;;;;;;;5062805;28;20037;-74
2021/12/16 06:41:35;;;;;;;10.65;5.68;;;;;;;;;;5063036;28;20029;-74
2021/12/16 06:44:06;;;;;;;23.23;13.75;;;;;;;;;;5042642;28;20061;-74
2021/12/16 06:46:36;;;;;;;23.60;13.40;;;;;;;;;;5027978;28;20033;-74
2021/12/16 06:49:04;;;;;;;19.92;11.63;;;;;;;;;;5031046;28;20026;-74
2021/12/16 06:51:40;;;;;;;18.77;10.50;;;;;;;;;;5027555;28;20044;-74
2021/12/16 06:54:11;;;;;;;39.80;20.70;;;;;;;;;;5027028;28;20071;-74
2021/12/16 06:57:34;;;;;;;39.20;20.73;;;;;;;;;;5027213;28;20029;-74
2021/12/16 06:59:38;;;;;;;41.58;20.65;;;;;;;;;;5015957;28;20041;-74
2021/12/16 07:02:12;;;;;;;27.90;14.80;;;;;;;;;;5026477;28;20033;-75
2021/12/16 07:04:39;;;;;;;28.50;13.07;;;;;;;;;;5026550;28;20026;-74
2021/12/16 07:07:08;;;;;;;17.20;9.60;;;;;;;;;;5068813;28;20040;-74
2021/12/16 07:09:34;;;;;;;17.52;9.50;;;;;;;;;;5091811;28;20390;-74
2021/12/16 07:12:01;;;;;;;16.33;8.20;;;;;;;;;;5090429;28;20043;-74
2021/12/16 07:14:38;;;;;;;14.95;7.85;;;;;;;;;;5087930;28;20016;-74
2021/12/16 07:17:07;;;;;;;18.40;9.23;;;;;;;;;;5090337;28;20027;-74
2021/12/16 07:19:34;;;;;;;20.27;11.95;;;;;;;;;;5090263;28;20024;-74
2021/12/16 07:22:00;;;;;;;23.30;13.73;;;;;;;;;;5091405;28;20053;-74
2021/12/16 07:24:27;;;;;;;19.30;10.70;;;;;;;;;;5091889;28;20027;-74
2021/12/16 07:26:53;;;;;;;21.05;12.43;;;;;;;;;;5091758;28;20012;-74
2021/12/16 07:29:19;;;;;;;21.27;12.63;;;;;;;;;;5090080;28;20035;-74
2021/12/16 07:31:46;;;;;;;27.05;15.00;;;;;;;;;;5089685;28;20093;-75
2021/12/16 07:34:13;;;;;;;28.63;16.13;;;;;;;;;;5089506;28;20028;-74
2021/12/16 07:36:40;;;;;;;32.08;17.17;;;;;;;;;;5092541;28;20020;-74
2021/12/16 07:39:09;;;;;;;28.63;14.63;;;;;;;;;;5090076;28;20028;-74
2021/12/16 07:41:38;;;;;;;23.73;11.75;;;;;;;;;;5089312;28;20090;-74
2021/12/16 07:44:12;;;;;;;25.40;12.65;;;;;;;;;;5109968;27;20741;-74
2021/12/16 07:46:59;;;;;;;26.65;14.25;;;;;;;;;;5124712;27;20027;-74
2021/12/16 07:49:30;;;;;;;19.20;10.10;;;;;;;;;;5118090;27;20015;-74
2021/12/16 07:51:57;;;;;;;18.90;9.70;;;;;;;;;;5132193;27;20031;-74
2021/12/16 07:54:24;;;;;;;15.43;9.52;;;;;;;;;;5132259;27;20026;-74
2021/12/16 07:56:52;;;;;;;19.02;10.60;;;;;;;;;;5129187;27;20031;-74
2021/12/16 07:59:19;;;;;;;15.95;10.10;;;;;;;;;;5130139;27;20379;-74
2021/12/16 08:01:46;;;;;;;18.25;10.35;;;;;;;;;;5111446;27;20023;-74
2021/12/16 08:04:21;;;;;;;13.63;7.85;;;;;;;;;;5130081;27;20595;-74
2021/12/16 08:06:49;;;;;;;13.13;7.60;;;;;;;;;;5132538;27;20028;-74
2021/12/16 08:09:15;;;;;;;13.25;7.47;;;;;;;;;;5131129;27;20025;-74
2021/12/16 08:11:42;;;;;;;10.57;5.97;;;;;;;;;;5129426;27;20045;-74
2021/12/16 08:14:09;;;;;;;13.48;6.82;;;;;;;;;;5114501;27;20038;-74
2021/12/16 08:16:36;;;;;;;12.77;5.78;;;;;;;;;;5129211;27;20019;-74
2021/12/16 08:19:03;;;;;;;36.10;15.18;;;;;;;;;;5130239;27;20037;-74
2021/12/16 08:21:30;;;;;;;49.85;21.25;;;;;;;;;;5129886;27;20020;-73
2021/12/16 08:23:58;;;;;;;21.88;7.85;;;;;;;;;;5129244;27;20027;-74
2021/12/16 08:26:24;;;;;;;20.38;9.20;;;;;;;;;;5129122;27;20134;-74
2021/12/16 08:28:51;;;;;;;16.13;8.57;;;;;;;;;;5131106;27;20022;-74
2021/12/16 08:31:17;;;;;;;30.38;9.82;;;;;;;;;;5129597;27;20035;-74
2021/12/16 08:33:43;;;;;;;16.92;8.65;;;;;;;;;;5132265;27;20019;-74
2021/12/16 08:36:10;;;;;;;12.60;7.05;;;;;;;;;;5130551;27;20037;-73
2021/12/16 08:38:37;;;;;;;19.15;7.43;;;;;;;;;;5128467;27;20057;-73
2021/12/16 08:41:08;;;;;;;13.27;6.88;;;;;;;;;;5124213;27;20114;-73
2021/12/16 08:43:35;;;;;;;;;;;;;;;;;;5129080;27;20042;-71
2021/12/16 08:46:02;;;;;;;8.13;4.95;;;;;;;;;;5124507;27;19911;-73
2021/12/16 08:48:29;;;;;;;12.00;6.50;;;;;;;;;;5131934;27;20031;-74
2021/12/16 08:50:56;;;;;;;14.07;7.43;;;;;;;;;;5128767;27;20023;-74
2021/12/16 08:53:23;;;;;;;17.70;7.90;;;;;;;;;;5128704;27;20500;-73
2021/12/16 08:55:50;;;;;;;16.67;8.05;;;;;;;;;;5127659;27;20031;-74
2021/12/16 08:58:17;;;;;;;10.35;7.38;;;;;;;;;;5128756;27;20040;-73
2021/12/16 09:00:47;;;;;;;13.02;5.10;;;;;;;;;;5131213;27;20027;-73
2021/12/16 09:03:14;;;;;;;10.02;5.60;;;;;;;;;;5131923;27;20035;-73
2021/12/16 09:05:40;;;;;;;13.05;6.95;;;;;;;;;;5128577;27;20027;-74
2021/12/16 09:08:07;;;;;;;10.00;6.47;;;;;;;;;;5129114;27;20025;-72
2021/12/16 09:10:35;;;;;;;9.68;5.82;;;;;;;;;;5128128;27;20048;-72
2021/12/16 09:13:03;;;;;;;10.63;6.15;;;;;;;;;;5129466;27;20027;-74
2021/12/16 09:15:34;;;;;;;12.80;7.10;;;;;;;;;;5119310;27;20019;-74
2021/12/16 09:18:02;;;;;;;13.95;7.10;;;;;;;;;;5127653;27;20061;-73
2021/12/16 09:20:29;;;;;;;14.10;7.18;;;;;;;;;;5127803;27;20019;-74
2021/12/16 09:22:55;;;;;;;9.70;6.28;;;;;;;;;;5128741;27;20027;-74
2021/12/16 09:25:23;;;;;;;9.90;5.35;;;;;;;;;;5127863;27;20032;-73
2021/12/16 09:27:50;;;;;;;8.63;5.55;;;;;;;;;;5130683;27;20037;-74
2021/12/16 09:30:18;;;;;;;10.73;5.18;;;;;;;;;;5129467;27;20015;-73
2021/12/16 09:32:45;;;;;;;8.55;4.75;;;;;;;;;;5125789;27;20019;-74
2021/12/16 09:35:12;;;;;;;11.02;4.72;;;;;;;;;;5128039;27;20019;-74
2021/12/16 09:37:38;;;;;;;12.55;4.72;;;;;;;;;;5124279;27;20027;-74
2021/12/16 09:40:07;;;;;;;10.23;4.68;;;;;;;;;;5126248;27;20423;-73
2021/12/16 09:42:35;;;;;;;11.30;4.38;;;;;;;;;;5131508;27;20387;-73
2021/12/16 09:45:02;;;;;;;9.10;4.97;;;;;;;;;;5127887;27;20050;-73
2021/12/16 09:47:30;;;;;;;9.52;6.35;;;;;;;;;;5127940;27;20050;-74
2021/12/16 09:49:57;;;;;;;10.45;5.72;;;;;;;;;;5127914;27;20031;-74
2021/12/16 09:52:23;;;;;;;9.48;5.35;;;;;;;;;;5127363;27;20031;-74
2021/12/16 09:54:50;;;;;;;7.95;5.10;;;;;;;;;;5130433;27;20034;-74
2021/12/16 09:57:17;;;;;;;9.75;5.43;;;;;;;;;;5128756;27;20037;-74
2021/12/16 09:59:43;;;;;;;10.88;5.00;;;;;;;;;;5109299;28;20039;-73
2021/12/16 10:02:12;;;;;;;8.07;5.43;;;;;;;;;;5128050;28;20392;-73
2021/12/16 10:04:39;;;;;;;7.88;5.25;;;;;;;;;;5127804;28;20027;-73
2021/12/16 10:07:16;;;;;;;11.07;6.10;;;;;;;;;;5126875;28;20390;-73
2021/12/16 10:09:43;;;;;;;11.32;6.13;;;;;;;;;;5126891;28;20027;-75
2021/12/16 10:12:17;;;;;;;11.60;5.80;;;;;;;;;;5127663;28;20035;-74
2021/12/16 10:17:30;;;;;;;8.27;4.45;;;;;;;;;;5127203;28;20500;-73
2021/12/16 10:20:23;;;;;;;4.57;3.22;;;;;;;;;;5114390;27;20021;-74
2021/12/16 10:22:51;;;;;;;6.80;3.30;;;;;;;;;;5127545;27;20399;-73
2021/12/16 10:25:17;;;;;;;5.47;2.80;;;;;;;;;;5130839;27;20075;-74
2021/12/16 10:28:01;;;;;;;6.55;3.03;;;;;;;;;;5134294;27;20358;-74
2021/12/16 10:30:48;;;;;;;11.73;3.00;;;;;;;;;;5134118;27;20035;-73
2021/12/16 10:33:24;;;;;;;4.65;2.65;;;;;;;;;;5134554;27;20038;-74
2021/12/16 10:35:56;;;;;;;6.00;3.15;;;;;;;;;;5130860;27;20029;-73
2021/12/16 10:38:25;;;;;;;4.82;3.38;;;;;;;;;;5128219;27;20027;-74
2021/12/16 10:40:53;;;;;;;6.22;4.00;;;;;;;;;;5123053;27;20385;-74
2021/12/16 10:43:31;;;;;;;9.55;5.40;;;;;;;;;;5131344;27;20039;-73
2021/12/16 10:46:18;;;;;;;8.98;5.25;;;;;;;;;;5133027;27;24861;-74
2021/12/16 10:48:50;;;;;;;6.60;4.65;;;;;;;;;;5130804;27;20030;-74
2021/12/16 10:51:20;;;;;;;7.72;4.57;;;;;;;;;;5108297;27;20036;-73
2021/12/16 10:54:01;;;;;;;4.90;3.65;;;;;;;;;;5130297;27;20016;-74
2021/12/16 10:56:27;;;;;;;5.03;3.55;;;;;;;;;;5123362;27;20028;-74
2021/12/16 10:58:55;;;;;;;14.13;5.15;;;;;;;;;;5120790;27;20042;-74
2021/12/16 11:01:40;;;;;;;10.10;5.18;;;;;;;;;;5129627;27;20026;-74
2021/12/16 11:04:09;;;;;;;8.60;4.80;;;;;;;;;;5115913;27;20034;-74
2021/12/16 11:06:38;;;;;;;8.70;5.68;;;;;;;;;;5129265;27;20053;-74
2021/12/16 11:09:23;;;;;;;10.30;6.07;;;;;;;;;;5132546;27;20017;-74
2021/12/16 11:12:04;;;;;;;11.27;5.25;;;;;;;;;;5130856;27;20007;-74
2021/12/16 11:14:30;;;;;;;7.75;5.10;;;;;;;;;;5130932;27;20112;-74
2021/12/16 11:16:58;;;;;;;7.00;4.18;;;;;;;;;;5129921;27;20019;-74
2021/12/16 11:19:50;;;;;;;5.68;4.15;;;;;;;;;;5130307;27;20026;-74
2021/12/16 11:22:19;;;;;;;5.43;3.92;;;;;;;;;;5111754;27;20042;-74
2021/12/16 11:24:46;;;;;;;7.20;3.88;;;;;;;;;;5132732;27;20019;-73
2021/12/16 11:27:33;;;;;;;6.20;4.70;;;;;;;;;;5131531;27;20270;-74
2021/12/16 11:30:17;;;;;;;6.70;4.55;;;;;;;;;;5111864;27;20039;-74
2021/12/16 11:32:46;;;;;;;6.10;3.88;;;;;;;;;;5129951;27;20025;-73
2021/12/16 11:35:36;;;;;;;5.60;3.92;;;;;;;;;;5130387;27;20543;-74
2021/12/16 11:38:06;;;;;;;8.50;4.72;;;;;;;;;;5130444;27;20035;-73
2021/12/16 11:40:51;;;;;;;6.13;3.83;;;;;;;;;;5130480;27;20054;-74
2021/12/16 11:43:17;;;;;;;5.07;3.60;;;;;;;;;;5115354;27;20321;-74
2021/12/16 11:45:44;;;;;;;6.88;3.75;;;;;;;;;;5130552;27;20035;-74
2021/12/16 11:48:26;;;;;;;8.15;3.33;;;;;;;;;;5130811;27;20023;-73
2021/12/16 11:51:01;;;;;;;6.40;3.70;;;;;;;;;;5130686;27;20038;-74
2021/12/16 11:53:43;;;;;;;5.78;3.15;;;;;;;;;;5130555;27;20019;-73
2021/12/16 11:56:11;;;;;;;3.85;3.10;;;;;;;;;;5130551;27;20011;-74
2021/12/16 11:58:39;;;;;;;6.38;3.53;;;;;;;;;;5130253;27;20031;-74
2021/12/16 12:01:17;;;;;;;4.35;2.88;;;;;;;;;;5130638;27;20035;-73
2021/12/16 12:03:43;;;;;;;5.15;3.00;;;;;;;;;;5111291;27;20146;-74
2021/12/16 12:06:18;;;;;;;4.53;2.70;;;;;;;;;;5131079;27;20038;-74
2021/12/16 12:08:46;;;;;;;5.13;3.47;;;;;;;;;;5111692;27;20025;-73
2021/12/16 12:11:24;;;;;;;5.15;3.10;;;;;;;;;;5130061;27;20036;-74
2021/12/16 12:13:56;;;;;;;4.80;3.35;;;;;;;;;;5130140;27;20023;-74
2021/12/16 12:16:26;;;;;;;7.30;3.10;;;;;;;;;;5130192;27;20076;-74
2021/12/16 12:19:00;;;;;;;4.68;3.03;;;;;;;;;;5131581;27;20041;-73
2021/12/16 12:21:29;;;;;;;8.38;3.30;;;;;;;;;;5132320;27;20033;-74
2021/12/16 12:23:57;;;;;;;7.10;3.72;;;;;;;;;;5112679;27;20031;-74
2021/12/16 12:26:25;;;;;;;6.63;3.53;;;;;;;;;;5129736;27;20019;-73
2021/12/16 12:28:53;;;;;;;8.65;3.47;;;;;;;;;;5129979;27;20023;-74
2021/12/16 12:31:21;;;;;;;7.05;3.60;;;;;;;;;;5129792;27;20023;-74
2021/12/16 12:33:47;;;;;;;11.40;5.43;;;;;;;;;;5113456;27;20031;-74
2021/12/16 12:36:15;;;;;;;6.13;3.90;;;;;;;;;;5128216;27;20023;-74
2021/12/16 12:38:41;;;;;;;11.07;4.65;;;;;;;;;;5127425;27;20035;-73
2021/12/16 12:41:08;;;;;;;7.28;4.68;;;;;;;;;;5124492;27;20037;-73
2021/12/16 12:43:35;;;;;;;12.02;5.30;;;;;;;;;;5116240;27;20035;-73
2021/12/16 12:46:03;;;;;;;11.25;4.82;;;;;;;;;;5130886;27;20015;-73
2021/12/16 12:48:32;;;;;;;8.52;4.93;;;;;;;;;;5132527;27;20052;-73
2021/12/16 12:50:58;;;;;;;8.88;4.28;;;;;;;;;;5129209;27;20015;-73
2021/12/16 12:53:26;;;;;;;6.65;4.20;;;;;;;;;;5130250;27;20023;-73
2021/12/16 12:55:57;;;;;;;9.05;4.82;;;;;;;;;;5122753;27;20027;-71
2021/12/16 12:58:25;;;;;;;7.18;4.13;;;;;;;;;;5126792;27;20050;-73
2021/12/16 13:00:57;;;;;;;7.97;4.80;;;;;;;;;;5115419;27;20027;-73
2021/12/16 13:03:35;;;;;;;7.65;4.85;;;;;;;;;;5129884;27;20023;-73
2021/12/16 13:06:04;;;;;;;7.72;4.93;;;;;;;;;;5129001;27;20031;-73
2021/12/16 13:08:35;;;;;;;12.02;5.32;;;;;;;;;;5125786;27;20026;-73
2021/12/16 13:11:03;;;;;;;12.93;4.57;;;;;;;;;;5128518;27;20031;-73
2021/12/16 13:13:52;;;;;;;8.90;5.40;;;;;;;;;;5124107;27;20035;-72
2021/12/16 13:16:53;;;;;;;9.90;5.25;;;;;;;;;;5127228;27;20036;-72
2021/12/16 13:27:47;;;;;;;8.70;5.60;;;;;;;;;;5128073;27;20511;-72
2021/12/16 13:30:21;;;;;;;10.43;5.90;;;;;;;;;;5130156;27;20025;-74
2021/12/16 13:35:50;;;;;;;8.38;5.07;;;;;;;;;;5110790;27;20027;-72
2021/12/16 13:38:21;;;;;;;6.03;3.65;;;;;;;;;;5125195;27;20030;-73
2021/12/16 13:40:48;;;;;;;11.70;7.68;;;;;;;;;;5127363;27;20027;-73
2021/12/16 13:43:19;;;;;;;11.20;5.88;;;;;;;;;;5110006;27;20148;-73
2021/12/16 13:45:58;;;;;;;5.03;2.88;;;;;;;;;;5108416;27;20498;-73
2021/12/16 14:05:21;;;;;;;5.45;3.28;;;;;;;;;;5127768;28;20019;-73
2021/12/16 14:07:56;;;;;;;5.63;3.45;;;;;;;;;;5126613;28;20025;-73
2021/12/16 14:10:38;;;;;;;3.65;2.45;;;;;;;;;;5126545;28;20394;-73
2021/12/16 14:14:08;;;;;;;5.97;2.88;;;;;;;;;;5125880;28;20030;-73
2021/12/16 14:16:29;;;;;;;3.67;2.50;;;;;;;;;;5127907;28;20027;-73
2021/12/16 14:31:04;;;;;;;4.93;2.50;;;;;;;;;;5122974;28;20031;-72
2021/12/16 14:38:25;;;;;;;3.78;2.30;;;;;;;;;;5122739;28;20519;-72
2021/12/16 14:41:08;;;;;;;8.13;2.53;;;;;;;;;;5101732;28;20029;-73
2021/12/16 14:43:51;;;;;;;5.07;2.35;;;;;;;;;;5127013;28;20076;-72
2021/12/16 14:46:28;;;;;;;4.78;2.10;;;;;;;;;;5114324;28;20020;-73
2021/12/16 14:48:54;;;;;;;5.22;2.20;;;;;;;;;;5129372;28;20030;-73
2021/12/16 14:51:21;;;;;;;8.35;3.10;;;;;;;;;;5110115;28;20027;-72
2021/12/16 14:53:52;;;;;;;4.60;2.90;;;;;;;;;;5129275;28;20027;-72
2021/12/16 14:56:23;;;;;;;11.05;3.47;;;;;;;;;;5121220;28;20049;-72
2021/12/16 14:58:53;;;;;;;10.68;4.07;;;;;;;;;;5123607;28;20031;-72
2021/12/16 15:01:23;;;;;;;24.88;7.03;;;;;;;;;;5127437;28;20511;-73
2021/12/16 15:03:51;;;;;;;15.85;5.88;;;;;;;;;;5127358;27;20493;-72
2021/12/16 15:06:23;;;;;;;10.13;5.03;;;;;;;;;;5130735;27;20031;-73
2021/12/16 15:08:59;;;;;;;12.02;5.40;;;;;;;;;;5129303;27;20023;-73
2021/12/16 15:36:53;;;;;;;11.57;5.22;;;;;;;;;;5050194;28;20045;-73
2021/12/16 15:39:39;;;;;;;14.55;5.47;;;;;;;;;;5049823;28;20411;-72
2021/12/16 15:44:57;;;;;;;11.23;5.15;;;;;;;;;;5047868;28;20611;-73
2021/12/16 15:47:24;;;;;;;13.55;5.43;;;;;;;;;;5048311;28;20108;-73
2021/12/16 15:49:51;;;;;;;12.02;5.70;;;;;;;;;;5048124;28;20517;-73
2021/12/16 15:52:18;;;;;;;17.17;6.70;;;;;;;;;;5048657;28;20021;-73
2021/12/16 15:54:49;;;;;;;18.88;7.47;;;;;;;;;;5047010;28;20067;-73
2021/12/16 15:57:18;;;;;;;16.38;8.07;;;;;;;;;;5049166;28;20033;-73
2021/12/16 15:59:48;;;;;;;14.20;7.70;;;;;;;;;;5046333;28;20044;-73
2021/12/16 16:02:18;;;;;;;11.90;7.10;;;;;;;;;;5048337;28;20422;-74
2021/12/16 16:04:45;;;;;;;22.20;10.60;;;;;;;;;;5048226;28;20438;-73
2021/12/16 16:07:13;;;;;;;22.65;10.85;;;;;;;;;;5047907;28;20037;-74
2021/12/16 16:09:44;;;;;;;17.58;9.20;;;;;;;;;;5049056;28;20035;-75
2021/12/16 16:12:16;;;;;;;16.63;8.68;;;;;;;;;;5049613;28;20040;-74
2021/12/16 16:14:44;;;;;;;;;;;;;;;;;;5114885;27;20027;-74
2021/12/16 16:17:15;;;;;;;15.02;6.57;;;;;;;;;;5130990;27;19907;-74
2021/12/16 16:19:41;;;;;;;;;;;;;;;;;;5130753;27;20019;-74
2021/12/16 16:22:08;;;;;;;18.67;8.25;;;;;;;;;;5113630;27;19908;-74
2021/12/16 16:24:37;;;;;;;14.68;7.70;;;;;;;;;;5133487;27;20507;-74
2021/12/16 16:27:05;;;;;;;12.70;6.53;;;;;;;;;;5130653;27;20031;-75
2021/12/16 16:29:33;;;;;;;8.80;5.22;;;;;;;;;;5130864;27;20030;-74
2021/12/16 16:31:59;;;;;;;6.55;3.80;;;;;;;;;;5130481;27;20492;-75
2021/12/16 16:34:28;;;;;;;6.05;3.60;;;;;;;;;;5130682;27;20024;-74
2021/12/16 16:36:56;;;;;;;9.70;4.40;;;;;;;;;;5132951;27;20384;-75
2021/12/16 16:39:24;;;;;;;6.47;4.05;;;;;;;;;;5131681;27;20031;-74
2021/12/16 16:41:53;;;;;;;10.52;4.90;;;;;;;;;;5130352;27;20019;-74
2021/12/16 16:44:21;;;;;;;9.13;4.90;;;;;;;;;;5130210;27;20035;-75
2021/12/16 16:46:53;;;;;;;13.98;6.40;;;;;;;;;;5130356;27;20025;-74
2021/12/16 16:49:47;;;;;;;17.55;7.45;;;;;;;;;;5111753;27;20042;-74
2021/12/16 16:52:20;;;;;;;25.48;12.13;;;;;;;;;;5114562;27;20023;-74
2021/12/16 16:55:13;;;;;;;25.63;12.93;;;;;;;;;;5132915;27;20021;-74
2021/12/16 16:57:50;;;;;;;24.85;11.07;;;;;;;;;;5125681;27;20053;-74
2021/12/16 17:00:24;;;;;;;24.98;11.05;;;;;;;;;;5133424;27;20019;-74
2021/12/16 17:02:51;;;;;;;43.28;19.95;;;;;;;;;;5130467;27;20501;-74
2021/12/16 17:05:21;;;;;;;49.28;22.98;;;;;;;;;;5130258;27;20046;-74
2021/12/16 17:07:49;;;;;;;49.45;20.48;;;;;;;;;;5129587;27;20474;-74
2021/12/16 17:10:24;;;;;;;41.83;18.73;;;;;;;;;;5130012;27;20513;-74
2021/12/16 17:12:59;;;;;;;38.53;17.17;;;;;;;;;;5132378;27;20553;-74
2021/12/16 17:15:35;;;;;;;34.53;16.20;;;;;;;;;;5131899;27;20041;-74
2021/12/16 17:18:02;;;;;;;27.63;14.02;;;;;;;;;;5129802;27;20493;-74
2021/12/16 17:20:28;;;;;;;28.17;13.48;;;;;;;;;;5129799;27;20027;-75
2021/12/16 17:23:00;;;;;;;21.23;12.05;;;;;;;;;;5111205;27;20033;-74
2021/12/16 17:25:26;;;;;;;23.67;12.05;;;;;;;;;;5129897;27;20050;-74
2021/12/16 17:27:58;;;;;;;21.50;10.52;;;;;;;;;;5131771;27;20478;-74
2021/12/16 17:30:26;;;;;;;26.45;10.20;;;;;;;;;;5130591;27;20076;-75
2021/12/16 17:32:53;;;;;;;20.13;10.18;;;;;;;;;;5129696;27;20015;-74
2021/12/16 17:35:34;;;;;;;27.20;10.93;;;;;;;;;;5131017;27;20023;-74
2021/12/16 17:38:12;;;;;;;28.13;12.70;;;;;;;;;;5129406;27;20023;-74
2021/12/16 17:40:42;;;;;;;40.22;14.70;;;;;;;;;;5107525;28;20056;-74
2021/12/16 17:43:11;;;;;;;28.73;13.00;;;;;;;;;;5129792;27;20033;-74
2021/12/16 17:45:46;;;;;;;26.73;10.45;;;;;;;;;;5114755;27;20031;-74
2021/12/16 17:48:19;;;;;;;25.70;10.60;;;;;;;;;;5130715;27;20029;-74
2021/12/16 17:50:50;;;;;;;21.95;11.35;;;;;;;;;;5129208;27;20419;-74
2021/12/16 17:53:17;;;;;;;26.23;11.40;;;;;;;;;;5129684;27;20023;-75
2021/12/16 17:55:45;;;;;;;31.10;13.55;;;;;;;;;;5129692;27;20027;-74
2021/12/16 17:58:13;;;;;;;18.73;9.57;;;;;;;;;;5113420;28;20023;-74
2021/12/16 18:00:49;;;;;;;15.20;8.93;;;;;;;;;;5128660;27;20027;-74
2021/12/16 18:03:17;;;;;;;23.38;10.73;;;;;;;;;;5132211;27;20031;-74
2021/12/16 18:05:49;;;;;;;20.13;9.30;;;;;;;;;;5128916;27;20512;-74
2021/12/16 18:08:42;;;;;;;24.75;12.13;;;;;;;;;;5129269;28;20031;-74
2021/12/16 18:11:10;;;;;;;27.55;12.70;;;;;;;;;;5108994;28;20505;-74
2021/12/16 18:13:39;;;;;;;27.10;13.30;;;;;;;;;;5131088;28;20049;-74
2021/12/16 18:16:06;;;;;;;25.58;13.00;;;;;;;;;;5130204;28;20027;-74
2021/12/16 18:18:32;;;;;;;27.80;14.57;;;;;;;;;;5131939;28;20035;-74
2021/12/16 18:21:00;;;;;;;49.90;20.23;;;;;;;;;;5128927;27;20385;-74
2021/12/16 18:23:27;;;;;;;66.80;27.88;;;;;;;;;;5129057;28;20021;-74
2021/12/16 18:25:56;;;;;;;58.28;25.60;;;;;;;;;;5129139;28;20477;-74
2021/12/16 18:28:29;;;;;;;52.20;21.40;;;;;;;;;;5129218;28;20030;-74